Booker, TX (79005)

10:05 PM CDT on July 25, 2016 (GMT -0500)
Zender Laundromat | | Change Station

Elev 2844 ft 36.45 °N, 100.54 °W | Updated 1 second ago

Clear
Clear
80.1 °F
Feels Like 82 °F
N
5.4
Wind Variable Wind from NE
Gusts 6.0 mph

Today
High -- | Low -- °F
--% Chance of Precip.
Yesterday
High -- | Low -- °F
Precip. -- in
Pressure 30.09 in
Visibility 10.0 miles
Clouds Clear
Heat Index 82 °F
Dew Point 67 °F
Humidity 64%
Rainfall 0.03 in
Snow Depth Not available.
6:43 AM 8:53 PM
Waning Gibbous, 59% visible
METAR KPYX 260255Z AUTO 05005KT 10SM CLR 26/20 A3009 RMK AO2 T02630202
Pressure 30.09 in
Visibility 10.0 miles
Clouds Clear
Heat Index 82 °F
Dew Point 67 °F
Humidity 64%
Rainfall 0.03 in
Snow Depth Not available.
6:43 AM 8:53 PM
Waning Gibbous, 59% visible
METAR KPYX 260255Z AUTO 05005KT 10SM CLR 26/20 A3009 RMK AO2 T02630202

10-Day Weather Forecast

Almanac

Astronomy

Jul. 25, 2016 Rise Set
Actual Time
Civil Twilight
Nautical Twilight
Astronomical Twilight
Moon
Length of Visible Light
Length of Day
Tomorrow will be .
, % of the Moon is Illuminated

Today's Extremes

State Highs State Lows

Community

WunderPhotos

Upload Photos

1,927,514 photos uploaded!

WunderBlog® & News

Nearby

Air Quality

  Air Quality AQ Index Pollutant
Not available.

Snow Depth

Station Depth Elevation

Earthquake Activity

City Distance Mag. Time & Date
Minimum magnitude displayed is 2.5.

Coastal Water Temperatures

Place Temperature

Stations

Nearby Weather Stations

Station Location Temp. Windchill Dew Point Humidity Wind Precip. Elev Updated Type
                   

Watches & Warnings

There are currently no watches in effect.